Time;durP1;ratioP1;P1;durP2;ratioP2;P2;SDS_P1;SDS_P2;PMS_P1;PMS_P2;Temp;Humidity;BMP_temperature;BMP_pressure;BME280_temperature;BME280_humidity;BME280_pressure;Samples;Min_cycle;Max_cycle;Signal;HPM_P1;HPM_P2
2022/01/08 00:00:38;;;;;;;10.57;6.00;;;;;;;4.23;100.00;94749.66;5064026;28;20550;-77
2022/01/08 00:03:06;;;;;;;8.77;5.97;;;;;;;4.28;100.00;94761.00;5064396;28;20206;-77
2022/01/08 00:05:34;;;;;;;9.10;6.47;;;;;;;4.36;100.00;94758.34;5069950;28;20292;-77
2022/01/08 00:08:02;;;;;;;8.97;6.10;;;;;;;4.40;100.00;94756.22;5063860;28;20240;-77
2022/01/08 00:10:31;;;;;;;8.83;6.20;;;;;;;4.45;100.00;94759.06;5063968;28;20293;-77
2022/01/08 00:13:04;;;;;;;10.13;6.03;;;;;;;4.51;100.00;94755.78;5063948;28;20205;-76
2022/01/08 00:15:34;;;;;;;7.20;5.57;;;;;;;4.52;100.00;94749.66;5070525;28;20555;-76
2022/01/08 00:18:04;;;;;;;8.77;6.17;;;;;;;4.64;100.00;94750.81;5075145;28;20206;-77
2022/01/08 00:20:33;;;;;;;9.67;6.93;;;;;;;4.61;100.00;94752.94;5071220;28;20197;-76
2022/01/08 00:23:04;;;;;;;8.27;5.80;;;;;;;4.70;100.00;94751.88;5070036;28;20313;-77
2022/01/08 00:25:34;;;;;;;8.63;6.23;;;;;;;4.63;100.00;94744.06;5069617;28;20224;-76
2022/01/08 00:28:04;;;;;;;7.07;5.57;;;;;;;4.51;100.00;94722.31;5068982;28;20264;-77
2022/01/08 00:30:33;;;;;;;7.43;5.70;;;;;;;4.44;100.00;94729.94;5070050;28;20257;-77
2022/01/08 00:33:04;;;;;;;8.47;5.30;;;;;;;4.53;100.00;94734.03;5066128;28;20264;-76
2022/01/08 00:35:33;;;;;;;8.43;5.83;;;;;;;4.48;100.00;94730.41;5068485;28;20202;-77
2022/01/08 00:38:00;;;;;;;8.63;5.43;;;;;;;4.50;100.00;94720.75;5069493;28;20244;-74
2022/01/08 00:40:29;;;;;;;6.73;5.50;;;;;;;4.50;100.00;94720.75;5069871;28;20676;-74
2022/01/08 00:42:59;;;;;;;8.13;5.97;;;;;;;4.45;100.00;94716.13;5070356;28;20284;-74
2022/01/08 00:45:29;;;;;;;7.87;5.73;;;;;;;4.41;100.00;94722.63;5069374;28;20212;-74
2022/01/08 00:47:58;;;;;;;7.73;5.57;;;;;;;4.42;100.00;94724.19;5068622;28;20290;-75
2022/01/08 00:50:26;;;;;;;8.20;6.20;;;;;;;4.54;100.00;94725.34;5069058;28;20709;-75
2022/01/08 00:52:55;;;;;;;8.27;6.03;;;;;;;4.55;100.00;94716.66;5068874;28;20207;-75
2022/01/08 00:55:23;;;;;;;7.63;5.50;;;;;;;4.46;100.00;94720.31;5069337;28;20940;-75
2022/01/08 00:57:54;;;;;;;7.77;5.33;;;;;;;4.40;100.00;94718.44;5067570;28;20239;-75
2022/01/08 01:00:23;;;;;;;7.07;4.90;;;;;;;4.40;100.00;94718.44;5067669;28;20254;-75
2022/01/08 01:02:55;;;;;;;8.20;5.43;;;;;;;4.48;100.00;94712.38;5068200;28;20205;-74
2022/01/08 01:05:23;;;;;;;6.93;5.33;;;;;;;4.55;100.00;94719.22;5069051;28;20657;-74
2022/01/08 01:07:53;;;;;;;6.43;4.63;;;;;;;4.67;100.00;94716.19;5068477;28;20695;-74
2022/01/08 01:10:23;;;;;;;7.07;5.27;;;;;;;4.65;100.00;94710.44;5068314;28;20238;-75
2022/01/08 01:12:52;;;;;;;6.50;4.80;;;;;;;4.61;100.00;94710.00;5068188;28;20704;-74
2022/01/08 01:15:20;;;;;;;7.73;5.33;;;;;;;4.58;100.00;94700.84;5068650;28;20533;-74
2022/01/08 01:17:49;;;;;;;6.43;4.73;;;;;;;4.60;100.00;94700.66;5074785;28;20205;-75
2022/01/08 01:20:21;;;;;;;5.93;4.33;;;;;;;4.58;100.00;94706.00;5067969;28;20325;-74
2022/01/08 01:22:57;;;;;;;7.33;4.83;;;;;;;4.55;100.00;94698.66;5062794;28;20607;-74
2022/01/08 01:25:30;;;;;;;6.00;4.80;;;;;;;4.67;100.00;94698.19;5069048;28;20219;-74
2022/01/08 01:28:17;;;;;;;8.27;4.73;;;;;;;4.55;100.00;94693.50;5067345;28;20233;-74
2022/01/08 01:42:21;;;;;;;6.40;4.50;;;;;;;4.48;100.00;94682.31;5068154;28;20228;-74
2022/01/08 01:47:37;;;;;;;6.33;4.50;;;;;;;4.48;100.00;94666.88;5068560;28;20302;-74
2022/01/08 01:50:11;;;;;;;5.50;4.30;;;;;;;4.50;100.00;94654.63;5067788;28;20915;-76
2022/01/08 01:52:43;;;;;;;5.40;4.10;;;;;;;4.57;100.00;94663.22;5069098;28;20200;-74
2022/01/08 01:55:12;;;;;;;5.73;4.53;;;;;;;4.43;100.00;94663.25;5067690;28;20202;-74
2022/01/08 01:57:42;;;;;;;5.73;4.33;;;;;;;4.47;100.00;94667.84;5067868;28;20286;-74
2022/01/08 02:00:13;;;;;;;5.67;4.17;;;;;;;4.40;100.00;94651.56;5067415;28;20208;-74
2022/01/08 02:02:41;;;;;;;6.50;4.57;;;;;;;4.29;100.00;94651.22;5068493;28;20201;-74
2022/01/08 02:05:11;;;;;;;5.50;4.33;;;;;;;4.25;100.00;94653.34;5068695;28;20275;-74
2022/01/08 02:07:44;;;;;;;6.70;4.43;;;;;;;4.20;100.00;94647.13;5067860;28;20304;-75
2022/01/08 02:10:11;;;;;;;7.03;4.60;;;;;;;4.23;100.00;94647.59;5067156;28;20212;-75
2022/01/08 02:12:39;;;;;;;5.63;4.20;;;;;;;4.10;100.00;94629.41;5067593;28;20209;-75
2022/01/08 02:15:08;;;;;;;5.40;3.90;;;;;;;4.21;100.00;94639.25;5068483;28;20204;-74
2022/01/08 02:17:36;;;;;;;5.53;3.97;;;;;;;4.16;100.00;94638.19;5073924;28;20203;-75
2022/01/08 02:20:08;;;;;;;4.63;3.80;;;;;;;4.25;100.00;94634.53;5067298;28;20731;-75
2022/01/08 02:22:38;;;;;;;6.47;4.40;;;;;;;4.15;100.00;94623.75;5067670;28;20213;-76
2022/01/08 02:25:08;;;;;;;5.23;4.00;;;;;;;4.07;100.00;94616.13;5067868;28;20210;-75
2022/01/08 02:27:36;;;;;;;5.43;3.93;;;;;;;4.17;100.00;94606.34;5067575;28;20231;-74
2022/01/08 02:30:09;;;;;;;5.53;4.40;;;;;;;4.23;100.00;94609.00;5066244;28;20221;-75
2022/01/08 02:32:41;;;;;;;6.43;4.30;;;;;;;4.19;100.00;94604.38;5061482;28;20288;-75
2022/01/08 02:35:12;;;;;;;6.20;4.40;;;;;;;4.27;100.00;94599.94;5062160;28;20671;-75
2022/01/08 02:37:41;;;;;;;6.77;4.70;;;;;;;4.14;100.00;94599.00;5067639;28;20201;-75
2022/01/08 02:40:11;;;;;;;10.80;5.00;;;;;;;4.15;100.00;94596.25;5068151;28;20205;-75
2022/01/08 02:42:50;;;;;;;8.17;4.97;;;;;;;4.19;100.00;94592.34;5068037;28;20209;-75
2022/01/08 02:45:20;;;;;;;5.93;4.43;;;;;;;4.16;100.00;94584.97;5067827;28;20200;-76
2022/01/08 02:47:49;;;;;;;6.07;4.57;;;;;;;4.13;100.00;94582.75;5069719;28;20223;-75
2022/01/08 02:50:19;;;;;;;6.53;4.70;;;;;;;4.12;100.00;94588.91;5067124;28;20248;-76
2022/01/08 02:52:49;;;;;;;5.43;4.27;;;;;;;4.15;100.00;94590.31;5067517;28;20209;-75
2022/01/08 02:55:19;;;;;;;5.47;4.23;;;;;;;3.98;100.00;94572.50;5068199;28;20292;-75
2022/01/08 02:57:48;;;;;;;6.07;4.40;;;;;;;4.14;100.00;94584.38;5070910;28;20213;-75
2022/01/08 03:00:20;;;;;;;7.53;4.60;;;;;;;4.08;100.00;94592.00;5071317;28;20205;-75
2022/01/08 03:02:53;;;;;;;5.73;4.47;;;;;;;4.00;100.00;94577.47;5071807;28;20596;-75
2022/01/08 03:05:24;;;;;;;5.60;4.30;;;;;;;4.04;100.00;94588.22;5072345;28;20737;-74
2022/01/08 03:07:58;;;;;;;6.63;4.70;;;;;;;4.09;100.00;94580.75;5070829;28;20209;-74
2022/01/08 03:10:26;;;;;;;7.47;4.77;;;;;;;3.99;100.00;94581.81;5065838;28;20232;-73
2022/01/08 03:12:54;;;;;;;8.73;4.67;;;;;;;4.00;100.00;94586.00;5071455;28;20270;-73
2022/01/08 03:15:26;;;;;;;6.90;4.97;;;;;;;4.04;100.00;94588.22;5071168;28;20202;-74
2022/01/08 03:17:54;;;;;;;7.37;4.53;;;;;;;4.00;100.00;94586.00;5070752;28;20209;-73
2022/01/08 03:20:24;;;;;;;6.70;4.80;;;;;;;4.04;100.00;94586.41;5070391;28;20696;-74
2022/01/08 03:23:01;;;;;;;6.10;4.63;;;;;;;4.09;100.00;94585.88;5070883;28;20652;-73
2022/01/08 03:25:30;;;;;;;6.30;4.67;;;;;;;4.22;100.00;94588.59;5070592;28;20719;-73
2022/01/08 03:27:58;;;;;;;6.40;4.57;;;;;;;4.16;100.00;94597.84;5070105;28;20315;-73
2022/01/08 03:30:30;;;;;;;6.07;4.37;;;;;;;4.13;100.00;94592.28;5071254;28;20312;-73
2022/01/08 03:32:58;;;;;;;5.90;4.57;;;;;;;4.15;100.00;94593.69;5070951;28;20644;-73
2022/01/08 03:35:30;;;;;;;6.00;4.50;;;;;;;4.09;100.00;94593.59;5069772;28;20284;-73
2022/01/08 03:37:58;;;;;;;7.10;4.57;;;;;;;4.06;100.00;94581.91;5069161;28;20284;-73
2022/01/08 03:40:29;;;;;;;7.27;4.93;;;;;;;4.02;100.00;94585.81;5071036;28;20316;-74
2022/01/08 03:42:56;;;;;;;7.07;5.07;;;;;;;4.04;100.00;94573.56;5070674;28;20209;-73
2022/01/08 03:45:25;;;;;;;6.10;4.77;;;;;;;4.06;100.00;94568.25;5069003;28;20209;-74
2022/01/08 03:48:07;;;;;;;5.90;4.70;;;;;;;3.98;100.00;94559.66;5066707;28;20225;-73
2022/01/08 03:50:37;;;;;;;5.47;4.30;;;;;;;3.96;100.00;94553.91;5068969;28;20581;-74
2022/01/08 03:53:08;;;;;;;7.37;4.93;;;;;;;3.96;100.00;94547.97;5063489;28;20216;-73
2022/01/08 03:55:37;;;;;;;7.20;4.50;;;;;;;4.00;100.00;94559.50;5063965;28;20193;-73
2022/01/08 03:58:09;;;;;;;6.93;4.80;;;;;;;3.95;100.00;94542.00;5069511;28;20217;-73
2022/01/08 04:00:37;;;;;;;6.93;4.80;;;;;;;3.95;100.00;94543.81;5070371;28;20197;-74
2022/01/08 04:03:06;;;;;;;7.53;4.90;;;;;;;3.85;100.00;94548.44;5069485;28;20205;-74
2022/01/08 04:05:36;;;;;;;6.60;4.63;;;;;;;3.87;100.00;94539.56;5070525;28;20591;-74
2022/01/08 04:08:09;;;;;;;5.10;4.20;;;;;;;3.87;100.00;94538.75;5068468;28;20255;-73
2022/01/08 04:10:38;;;;;;;6.00;4.40;;;;;;;3.90;100.00;94539.19;5068817;28;20201;-73
2022/01/08 04:13:11;;;;;;;6.90;4.70;;;;;;;3.89;100.00;94541.97;5068300;28;20205;-73
2022/01/08 04:15:45;;;;;;;7.10;4.97;;;;;;;3.98;100.00;94540.88;5070950;28;20305;-73
2022/01/08 04:18:15;;;;;;;5.57;4.20;;;;;;;3.85;100.00;94546.66;5073095;28;20202;-73
2022/01/08 04:21:08;;;;;;;6.93;4.40;;;;;;;3.89;100.00;94547.91;5066310;28;20289;-73
2022/01/08 04:23:36;;;;;;;8.53;4.90;;;;;;;3.88;100.00;94554.00;5064424;28;20209;-73
2022/01/08 04:26:05;;;;;;;7.67;4.80;;;;;;;3.92;100.00;94550.13;5069000;28;20194;-72
2022/01/08 04:28:39;;;;;;;7.77;5.00;;;;;;;3.95;100.00;94547.16;5069253;28;20275;-73
2022/01/08 04:31:08;;;;;;;7.73;5.10;;;;;;;3.97;100.00;94550.38;5069951;28;20229;-74
2022/01/08 04:33:37;;;;;;;7.83;4.90;;;;;;;3.90;100.00;94543.53;5069240;28;20317;-73
2022/01/08 04:36:07;;;;;;;8.47;4.83;;;;;;;3.95;100.00;94549.72;5068716;28;20204;-74
2022/01/08 04:38:37;;;;;;;7.20;4.83;;;;;;;3.93;100.00;94549.13;5069198;28;20544;-74
2022/01/08 04:41:06;;;;;;;5.50;4.20;;;;;;;3.92;100.00;94557.03;5068955;28;20255;-74
2022/01/08 04:43:37;;;;;;;11.57;4.87;;;;;;;3.94;100.00;94561.00;5070187;28;20210;-74
2022/01/08 04:46:07;;;;;;;7.07;5.10;;;;;;;4.03;100.00;94553.19;5070414;28;20216;-74
2022/01/08 04:48:36;;;;;;;7.50;5.17;;;;;;;4.08;100.00;94546.53;5069475;28;20724;-74
2022/01/08 04:51:03;;;;;;;11.50;5.43;;;;;;;4.07;100.00;94554.44;5068480;28;20193;-74
2022/01/08 04:53:34;;;;;;;10.67;5.10;;;;;;;3.93;100.00;94545.75;5069277;28;20294;-74
2022/01/08 04:56:04;;;;;;;10.47;5.57;;;;;;;3.97;100.00;94541.84;5069179;28;20220;-74
2022/01/08 04:58:32;;;;;;;10.47;5.97;;;;;;;4.04;100.00;94545.28;5069257;28;20202;-74
2022/01/08 05:01:01;;;;;;;11.47;5.63;;;;;;;4.07;100.00;94541.56;5069316;28;20216;-74
2022/01/08 05:03:29;;;;;;;7.77;5.00;;;;;;;4.16;100.00;94548.19;5068844;28;20263;-75
2022/01/08 05:05:57;;;;;;;12.27;5.17;;;;;;;4.13;100.00;94551.16;5068881;28;20632;-75
2022/01/08 05:08:25;;;;;;;8.07;4.33;;;;;;;4.14;100.00;94555.28;5068894;28;20225;-75
2022/01/08 05:10:59;;;;;;;7.63;4.10;;;;;;;4.16;100.00;94555.88;5068828;28;20200;-75
2022/01/08 05:13:27;;;;;;;7.33;4.57;;;;;;;4.10;100.00;94554.06;5068237;28;20228;-75
2022/01/08 05:15:58;;;;;;;7.87;4.23;;;;;;;4.21;100.00;94551.81;5071423;28;20257;-75
2022/01/08 05:18:25;;;;;;;6.77;4.20;;;;;;;4.20;100.00;94552.00;5068825;28;20322;-74
2022/01/08 05:20:58;;;;;;;5.93;4.10;;;;;;;4.10;100.00;94547.13;5067978;28;20244;-74
2022/01/08 05:23:27;;;;;;;7.63;3.60;;;;;;;4.08;100.00;94540.59;5068409;28;20220;-74
2022/01/08 05:25:58;;;;;;;5.43;3.73;;;;;;;4.05;100.00;94539.16;5061341;28;20207;-74
2022/01/08 05:28:26;;;;;;;6.43;3.80;;;;;;;4.08;100.00;94538.00;5067956;28;20224;-75
2022/01/08 05:30:54;;;;;;;6.30;3.90;;;;;;;3.97;100.00;94547.00;5068306;28;20233;-74
2022/01/08 05:33:23;;;;;;;5.23;3.60;;;;;;;3.96;100.00;94537.69;5068033;28;20267;-74
2022/01/08 05:35:52;;;;;;;6.43;3.90;;;;;;;4.12;100.00;94537.47;5067693;28;20657;-74
2022/01/08 05:38:21;;;;;;;4.77;3.40;;;;;;;4.19;100.00;94532.38;5067765;28;20672;-74
2022/01/08 05:40:50;;;;;;;8.10;3.80;;;;;;;4.20;100.00;94539.13;5069179;28;20309;-74
2022/01/08 05:43:20;;;;;;;5.73;3.67;;;;;;;4.20;100.00;94539.13;5067959;28;20201;-74
2022/01/08 05:45:49;;;;;;;6.27;4.10;;;;;;;4.09;100.00;94529.31;5069210;28;20292;-73
2022/01/08 05:48:17;;;;;;;7.67;3.57;;;;;;;4.22;100.00;94537.97;5067386;28;20193;-73
2022/01/08 05:50:47;;;;;;;4.53;3.17;;;;;;;4.17;100.00;94542.88;5068047;28;20198;-73
2022/01/08 05:53:15;;;;;;;4.63;3.77;;;;;;;4.14;100.00;94543.22;5068420;28;20263;-73
2022/01/08 05:55:44;;;;;;;4.27;3.27;;;;;;;4.19;100.00;94540.09;5067321;28;20201;-73
2022/01/08 05:58:11;;;;;;;5.73;3.43;;;;;;;4.16;100.00;94540.47;5067053;28;20218;-74
2022/01/08 06:00:42;;;;;;;5.90;3.17;;;;;;;4.20;100.00;94526.28;5068076;28;20215;-74
2022/01/08 06:03:19;;;;;;;7.77;3.50;;;;;;;4.25;100.00;94531.66;5068495;28;20811;-74
2022/01/08 06:05:48;;;;;;;4.37;3.50;;;;;;;4.28;100.00;94537.25;5068191;28;20205;-73
2022/01/08 06:08:17;;;;;;;5.13;3.40;;;;;;;4.34;100.00;94536.53;5067052;28;20208;-73
2022/01/08 06:10:48;;;;;;;3.67;2.87;;;;;;;4.32;100.00;94524.81;5067329;28;20524;-73
2022/01/08 06:13:16;;;;;;;6.00;3.30;;;;;;;4.35;100.00;94527.84;5067745;28;20215;-74
2022/01/08 06:15:46;;;;;;;4.20;3.37;;;;;;;4.35;100.00;94520.13;5070349;28;20224;-74
2022/01/08 06:18:16;;;;;;;3.50;2.70;;;;;;;4.33;100.00;94534.91;5070343;28;20263;-74
2022/01/08 06:20:45;;;;;;;5.60;3.87;;;;;;;4.41;100.00;94534.81;5067969;28;20233;-74
2022/01/08 06:23:13;;;;;;;4.50;3.30;;;;;;;4.37;100.00;94537.94;5067607;28;20212;-74
2022/01/08 06:25:43;;;;;;;6.60;3.20;;;;;;;4.44;100.00;94531.84;5067403;28;20206;-73
2022/01/08 06:28:12;;;;;;;4.10;3.07;;;;;;;4.45;100.00;94532.66;5067589;28;20214;-73
2022/01/08 06:30:40;;;;;;;5.20;3.00;;;;;;;4.44;100.00;94521.56;5069959;28;20233;-73
2022/01/08 06:33:11;;;;;;;5.20;2.93;;;;;;;4.56;100.00;94525.25;5071201;28;20194;-73
2022/01/08 06:35:39;;;;;;;6.97;4.13;;;;;;;4.52;100.00;94528.38;5071294;28;20205;-73
2022/01/08 06:38:08;;;;;;;3.60;3.00;;;;;;;4.56;100.00;94514.16;5070552;28;20208;-74
2022/01/08 06:40:37;;;;;;;3.60;2.90;;;;;;;4.61;100.00;94521.34;5071444;28;20212;-75
2022/01/08 06:43:07;;;;;;;4.30;3.20;;;;;;;4.52;100.00;94516.31;5071353;28;20201;-73
2022/01/08 06:45:37;;;;;;;5.40;3.70;;;;;;;4.54;100.00;94516.94;5072532;28;20236;-74
2022/01/08 06:48:05;;;;;;;3.10;2.70;;;;;;;4.42;100.00;94499.59;5064761;28;20209;-73
2022/01/08 06:50:36;;;;;;;4.93;2.70;;;;;;;4.52;100.00;94516.31;5071985;28;20224;-73
2022/01/08 06:53:05;;;;;;;4.37;3.03;;;;;;;4.57;100.00;94514.00;5065734;28;20197;-74
2022/01/08 06:55:35;;;;;;;6.47;3.20;;;;;;;4.64;100.00;94514.06;5071603;28;20203;-74
2022/01/08 06:58:03;;;;;;;5.73;2.97;;;;;;;4.61;100.00;94511.03;5070930;28;20207;-74
2022/01/08 07:00:31;;;;;;;3.13;2.60;;;;;;;4.63;100.00;94524.50;5071086;28;20201;-74
2022/01/08 07:03:00;;;;;;;4.43;2.53;;;;;;;4.72;100.00;94519.06;5072016;28;20209;-74
2022/01/08 07:05:29;;;;;;;5.43;2.80;;;;;;;4.79;100.00;94519.13;5071357;28;20198;-74
2022/01/08 07:07:59;;;;;;;3.70;2.87;;;;;;;4.79;100.00;94529.44;5070501;28;20295;-74
2022/01/08 07:10:28;;;;;;;5.40;2.67;;;;;;;4.90;100.00;94522.00;5070755;28;20605;-73
2022/01/08 07:12:57;;;;;;;7.40;2.57;;;;;;;4.92;100.00;94517.44;5071717;28;20203;-74
2022/01/08 07:15:25;;;;;;;9.83;5.50;;;;;;;4.97;100.00;94527.97;5072198;28;20294;-74
2022/01/08 07:17:54;;;;;;;4.17;2.80;;;;;;;4.96;100.00;94515.31;5071223;28;20202;-72
2022/01/08 07:20:23;;;;;;;4.90;3.10;;;;;;;4.94;100.00;94512.09;5071465;28;20206;-70
2022/01/08 07:22:52;;;;;;;3.63;2.97;;;;;;;4.95;100.00;94517.06;5071074;28;20209;-73
2022/01/08 07:25:22;;;;;;;4.47;3.27;;;;;;;4.98;100.00;94514.13;5071857;28;20289;-72
2022/01/08 07:27:50;;;;;;;7.00;4.10;;;;;;;4.95;100.00;94511.94;5070161;28;20191;-71
2022/01/08 07:30:22;;;;;;;4.40;3.33;;;;;;;5.04;100.00;94505.66;5070649;28;20305;-72
2022/01/08 07:32:52;;;;;;;5.73;3.17;;;;;;;5.06;100.00;94505.47;5071457;28;20201;-72
2022/01/08 07:35:23;;;;;;;5.40;3.10;;;;;;;5.10;100.00;94504.91;5071014;28;20261;-72
2022/01/08 07:37:54;;;;;;;5.63;2.70;;;;;;;5.04;100.00;94518.53;5070742;28;20326;-71
2022/01/08 07:40:27;;;;;;;3.40;2.90;;;;;;;5.17;100.00;94514.47;5069571;28;20203;-73
2022/01/08 07:42:58;;;;;;;6.57;2.83;;;;;;;5.16;100.00;94521.38;5069969;28;20259;-73
2022/01/08 07:45:27;;;;;;;5.20;2.80;;;;;;;5.19;100.00;94530.50;5070646;28;20298;-71
2022/01/08 07:47:56;;;;;;;4.53;3.10;;;;;;;5.17;100.00;94517.81;5071292;28;20205;-72
2022/01/08 07:50:25;;;;;;;5.57;3.17;;;;;;;5.17;100.00;94520.38;5071439;28;20909;-71
2022/01/08 07:52:54;;;;;;;5.90;3.67;;;;;;;5.21;100.00;94513.09;5069923;28;20225;-71
2022/01/08 07:55:24;;;;;;;7.40;3.23;;;;;;;5.25;100.00;94520.25;5070155;28;20217;-72
2022/01/08 07:57:54;;;;;;;5.40;3.57;;;;;;;5.19;100.00;94515.06;5068774;28;20854;-80
2022/01/08 08:00:22;;;;;;;5.70;3.37;;;;;;;5.13;100.00;94514.03;5065233;28;20210;-89
2022/01/08 08:02:50;;;;;;;4.70;3.30;;;;;;;5.34;100.00;94523.50;5066006;28;20324;-83
2022/01/08 08:05:19;;;;;;;6.20;2.97;;;;;;;5.48;100.00;94531.09;5072902;28;20273;-83
2022/01/08 08:07:46;;;;;;;8.13;4.83;;;;;;;5.53;100.00;94525.38;5072550;28;20207;-83
2022/01/08 08:10:17;;;;;;;4.67;3.30;;;;;;;5.64;100.00;94522.25;5072832;28;20222;-83
2022/01/08 08:12:47;;;;;;;5.17;3.47;;;;;;;5.70;100.00;94526.66;5060574;28;20254;-84
2022/01/08 08:15:17;;;;;;;5.60;3.03;;;;;;;5.68;100.00;94513.94;5073133;28;20203;-83
2022/01/08 08:17:45;;;;;;;10.87;3.07;;;;;;;5.78;100.00;94520.53;5070380;28;20289;-81
2022/01/08 08:20:14;;;;;;;5.13;3.10;;;;;;;5.88;100.00;94526.19;5072069;28;20252;-82
2022/01/08 08:22:42;;;;;;;5.00;2.70;;;;;;;5.92;99.97;94530.75;5059268;28;20216;-89
2022/01/08 08:25:13;;;;;;;5.87;3.30;;;;;;;5.82;100.00;94519.97;5073481;28;20955;-82
2022/01/08 08:27:41;;;;;;;6.43;3.43;;;;;;;5.86;99.87;94515.25;5072013;28;20200;-83
2022/01/08 08:30:13;;;;;;;6.67;2.97;;;;;;;6.01;100.00;94523.63;5071211;28;20757;-85
2022/01/08 08:32:43;;;;;;;5.70;3.00;;;;;;;6.00;99.56;94509.94;5072334;28;20283;-86
2022/01/08 08:35:12;;;;;;;7.33;3.20;;;;;;;6.01;99.05;94495.25;5071432;28;20217;-86
2022/01/08 08:37:40;;;;;;;4.73;3.13;;;;;;;6.14;98.76;94497.91;5072313;28;20287;-83
2022/01/08 08:40:11;;;;;;;5.17;3.03;;;;;;;6.17;98.47;94511.22;5071944;28;21029;-89
2022/01/08 08:42:42;;;;;;;6.43;3.13;;;;;;;6.43;97.91;94509.66;5069259;28;20220;-83
2022/01/08 08:45:14;;;;;;;3.93;2.60;;;;;;;6.53;96.37;94518.63;5052509;28;20209;-83
2022/01/08 08:47:43;;;;;;;4.80;2.90;;;;;;;6.54;96.30;94514.25;5071286;28;20212;-85
2022/01/08 08:50:15;;;;;;;3.43;2.67;;;;;;;6.57;95.13;94504.34;5071478;28;20219;-81
2022/01/08 08:52:48;;;;;;;3.80;2.40;;;;;;;6.63;95.34;94502.75;5057975;28;20202;-81
2022/01/08 08:55:18;;;;;;;5.33;2.70;;;;;;;6.75;94.46;94499.38;5058066;28;20205;-86
2022/01/08 08:57:46;;;;;;;4.60;2.80;;;;;;;6.72;94.02;94496.41;5071164;28;20283;-83
2022/01/08 09:00:17;;;;;;;4.57;3.00;;;;;;;6.70;93.70;94491.44;5070991;28;20205;-83
2022/01/08 09:02:48;;;;;;;5.53;3.03;;;;;;;6.78;94.32;94493.03;5071202;28;20208;-79
2022/01/08 09:05:16;;;;;;;5.47;2.90;;;;;;;6.95;92.78;94490.84;5064384;28;20201;-83
2022/01/08 09:07:45;;;;;;;5.13;2.97;;;;;;;6.91;93.44;94482.69;5057879;28;20204;-80
2022/01/08 09:10:14;;;;;;;7.23;3.10;;;;;;;6.96;93.64;94485.47;5064983;28;20713;-80
2022/01/08 09:12:44;;;;;;;6.57;2.90;;;;;;;6.98;92.35;94480.91;5064060;28;20205;-86
2022/01/08 09:15:14;;;;;;;4.67;2.93;;;;;;;7.16;92.01;94481.06;5069678;28;20208;-85
2022/01/08 09:17:43;;;;;;;4.70;3.07;;;;;;;7.20;91.38;94473.72;5072958;28;20282;-84
2022/01/08 09:20:12;;;;;;;8.80;3.20;;;;;;;7.34;90.75;94477.88;5069546;28;20246;-85
2022/01/08 09:22:40;;;;;;;3.93;3.00;;;;;;;7.41;89.78;94463.94;5065314;28;20194;-88
2022/01/08 09:25:11;;;;;;;3.90;2.87;;;;;;;7.55;88.68;94474.25;5071702;28;20284;-86
2022/01/08 09:27:39;;;;;;;5.60;3.20;;;;;;;7.56;88.19;94468.09;5064740;28;20237;-79
2022/01/08 09:30:08;;;;;;;6.40;3.50;;;;;;;7.50;88.45;94459.34;5069670;28;20231;-88
2022/01/08 09:32:37;;;;;;;5.37;3.60;;;;;;;7.56;87.89;94452.56;5071956;28;20208;-81
2022/01/08 09:35:07;;;;;;;5.73;3.50;;;;;;;7.59;87.23;94455.50;5071570;28;20321;-89
2022/01/08 09:37:37;;;;;;;7.33;3.50;;;;;;;7.61;87.43;94450.97;5072891;28;20208;-81
2022/01/08 09:40:08;;;;;;;5.40;3.47;;;;;;;7.58;87.18;94447.97;5070854;28;20209;-82
2022/01/08 09:42:38;;;;;;;6.67;3.20;;;;;;;7.51;88.44;94452.38;5067378;28;20255;-81
2022/01/08 09:45:09;;;;;;;7.90;2.63;;;;;;;7.40;88.24;94444.25;5052423;28;20277;-81
2022/01/08 09:47:37;;;;;;;5.47;3.33;;;;;;;7.49;88.35;94441.44;5058580;28;20700;-81
2022/01/08 09:50:09;;;;;;;4.07;2.80;;;;;;;7.63;87.39;94435.22;5069673;28;20231;-81
2022/01/08 09:52:38;;;;;;;4.67;2.83;;;;;;;7.78;86.15;94438.34;5062216;28;20189;-81
2022/01/08 09:55:07;;;;;;;4.87;2.93;;;;;;;7.84;85.10;94435.75;5068679;28;20687;-81
2022/01/08 09:57:36;;;;;;;5.13;3.00;;;;;;;7.77;85.26;94439.34;5070171;28;20280;-80
2022/01/08 10:00:11;;;;;;;4.73;3.30;;;;;;;7.77;85.91;94429.78;5070073;28;20201;-80
2022/01/08 10:02:39;;;;;;;6.47;3.10;;;;;;;7.72;85.14;94429.63;5070097;28;20205;-81
2022/01/08 10:05:17;;;;;;;7.03;3.03;;;;;;;7.66;85.26;94425.25;5064085;28;20216;-81
2022/01/08 10:07:58;;;;;;;7.50;3.20;;;;;;;7.77;84.69;94423.81;5057040;28;20200;-81
2022/01/08 10:10:27;;;;;;;7.73;3.00;;;;;;;7.79;84.78;94417.44;5070190;28;20286;-81
2022/01/08 10:12:59;;;;;;;4.27;2.70;;;;;;;7.79;83.70;94404.50;5070979;28;20253;-81
2022/01/08 10:18:24;;;;;;;5.13;3.70;;;;;;;7.78;84.79;94410.69;5051058;28;20201;-81
2022/01/08 10:20:59;;;;;;;5.27;3.40;;;;;;;7.64;83.96;94408.38;5057400;28;20351;-81
2022/01/08 10:23:30;;;;;;;5.37;3.20;;;;;;;7.69;84.31;94405.97;5070544;28;20572;-81
2022/01/08 10:26:03;;;;;;;8.70;4.20;;;;;;;7.69;84.51;94396.41;5068249;28;20266;-81
2022/01/08 10:28:37;;;;;;;5.80;3.83;;;;;;;7.83;84.72;94403.09;5066433;28;20198;-81
2022/01/08 10:31:11;;;;;;;5.53;3.30;;;;;;;7.87;84.06;94400.91;5070025;28;20232;-81
2022/01/08 10:33:42;;;;;;;4.50;2.87;;;;;;;7.68;84.78;94386.25;5069457;28;20262;-80
2022/01/08 10:36:12;;;;;;;4.50;2.90;;;;;;;7.88;84.54;94387.75;5070040;28;20193;-80
2022/01/08 10:38:41;;;;;;;5.47;3.03;;;;;;;8.02;84.34;94383.31;5069531;28;20193;-80
2022/01/08 10:41:15;;;;;;;3.87;3.13;;;;;;;8.29;83.56;94378.75;5068342;28;20621;-81
2022/01/08 10:43:45;;;;;;;5.17;3.20;;;;;;;8.41;80.76;94374.50;5068376;28;20673;-79
2022/01/08 10:46:16;;;;;;;7.67;3.60;;;;;;;8.54;80.10;94379.56;5068268;28;20201;-81
2022/01/08 10:48:47;;;;;;;4.77;3.47;;;;;;;8.63;78.71;94380.09;5067705;28;20647;-80
2022/01/08 10:51:21;;;;;;;12.63;4.47;;;;;;;8.72;77.83;94377.00;5068249;28;20213;-79
2022/01/08 10:53:55;;;;;;;20.70;7.57;;;;;;;8.70;77.39;94375.63;5067793;28;20292;-79
2022/01/08 10:56:26;;;;;;;11.53;5.47;;;;;;;8.91;77.17;94372.66;5067841;28;20256;-79
2022/01/08 10:58:59;;;;;;;11.50;4.60;;;;;;;8.78;77.41;94376.16;5068207;28;20232;-80
2022/01/08 11:01:39;;;;;;;11.40;4.93;;;;;;;8.91;77.09;94365.69;5068641;28;20197;-80
2022/01/08 11:04:08;;;;;;;12.03;5.20;;;;;;;9.12;76.46;94369.63;5067787;28;20284;-80
2022/01/08 11:06:54;;;;;;;19.23;6.87;;;;;;;9.26;74.84;94370.31;5068936;28;20585;-80
2022/01/08 11:09:22;;;;;;;30.00;9.87;;;;;;;9.33;73.34;94365.81;5068399;28;20205;-80
2022/01/08 11:11:55;;;;;;;22.37;8.73;;;;;;;9.15;73.94;94369.22;5067211;28;20304;-80
2022/01/08 11:14:48;;;;;;;7.77;4.10;;;;;;;9.10;73.51;94364.69;5067753;28;20588;-80
2022/01/08 11:17:21;;;;;;;3.70;3.17;;;;;;;9.22;74.76;94369.94;5073470;28;20209;-80
2022/01/08 11:19:54;;;;;;;7.90;3.70;;;;;;;9.50;74.30;94362.44;5071833;28;20208;-80
2022/01/08 11:22:25;;;;;;;6.53;3.77;;;;;;;9.50;73.83;94367.63;5072436;28;20233;-80
2022/01/08 11:24:57;;;;;;;4.70;3.10;;;;;;;9.43;73.52;94347.97;5065615;28;20264;-80
2022/01/08 11:27:29;;;;;;;4.70;3.30;;;;;;;9.29;73.73;94354.31;5065567;28;20198;-81
2022/01/08 11:30:04;;;;;;;5.67;3.67;;;;;;;9.40;73.88;94351.78;5071361;28;20205;-80
2022/01/08 11:32:33;;;;;;;5.37;3.30;;;;;;;9.61;74.53;94360.88;5071772;28;20263;-80
2022/01/08 11:35:04;;;;;;;5.73;3.30;;;;;;;9.84;72.10;94358.38;5065583;28;20208;-79
2022/01/08 11:37:36;;;;;;;8.23;3.57;;;;;;;9.94;71.25;94356.06;5072296;28;20205;-81
2022/01/08 11:40:09;;;;;;;10.53;3.33;;;;;;;9.97;70.82;94353.03;5070807;28;20236;-81
2022/01/08 11:42:40;;;;;;;5.10;3.63;;;;;;;9.96;71.03;94343.66;5072036;28;20209;-79
2022/01/08 11:45:13;;;;;;;4.97;3.67;;;;;;;10.04;70.78;94340.72;5072173;28;20208;-79
2022/01/08 11:47:46;;;;;;;7.60;4.13;;;;;;;9.86;70.98;94332.22;5078785;28;20567;-79
2022/01/08 11:50:15;;;;;;;6.50;3.80;;;;;;;9.86;71.80;94327.84;5071351;28;20263;-80
2022/01/08 11:52:44;;;;;;;4.90;3.80;;;;;;;9.89;71.11;94318.81;5071379;28;20233;-79
2022/01/08 11:55:13;;;;;;;6.87;4.30;;;;;;;10.08;70.39;94325.50;5071557;28;20687;-80
2022/01/08 11:57:47;;;;;;;8.37;3.93;;;;;;;10.37;69.36;94331.69;5071984;28;20205;-79
2022/01/08 12:00:52;;;;;;;4.80;3.60;;;;;;;10.71;67.20;94336.09;5071140;28;20374;-79
2022/01/08 12:03:25;;;;;;;5.73;4.00;;;;;;;11.39;64.80;94338.88;5071366;28;20208;-81
2022/01/08 12:05:57;;;;;;;4.43;3.50;;;;;;;11.77;62.66;94330.50;5070944;28;20241;-79